Two Dot, Montana
Current Conditions -  °F | °C
As of 8:09 PM on Friday 28 Nov 2014 (Local Time) from KLWT Reporting Station
Overcast Overcast  
Wind Chill: -4°   Ceiling: 200
Heat Index: 13°   Visibility: 7mi
Dew Point:   Wind: 17mph
Humidity: 84%   Direction: 260°W
Pressure: 29.44"   Gusts: NA
Location:  46.4657°N, 110.033°W
Report Text: KLWT 290309Z AUTO 26015KT 7SM OVC002 M11/M13 A2944 RMK AO2 T11061128
Loading
Personal Weather Stations






























Interactive Weather Map New forecast layout! Learn more

10-Day Weather Forecast

Advertisements
Track Severe Weather on mobile